Nearby METAR Reports

 

KMMK - Meriden, Connecticut, USA
Distance from station: SSE 6mi, 10km
Updated: Sun, 06-13-2021 5:53am EDT
Clear
Clear
 Wind from calm
Wind: Calm
Temperature: 52°F , 11°C
Dew Point: 50°F , 10°C
Humidity: 94%
Barometer: 29.92 inHg , 1013.2 hPa
Clouds: Clear
Visibility: 10 miles , 16 km
2021/06/13 09:53 KMMK 130953Z AUTO 00000KT 10SM CLR 11/10 A2992 RMK AO2 SLP130 T01110100
KHFD - Hartford/Brainar, Connecticut, USA
Distance from station: NE 15mi, 25km
Updated: Sun, 06-13-2021 5:53am EDT
Clear
Clear
 Wind from S
Wind: S 5 mph , 7 km/h
Temperature: 57°F , 14°C
Dew Point: 55°F , 13°C
Humidity: 94%
Barometer: 29.91 inHg , 1012.9 hPa
Clouds: Clear
Visibility: 10 miles , 16 km
2021/06/13 09:53 KHFD 130953Z AUTO 19004KT 10SM CLR 14/13 A2991 RMK AO2 SLP127 T01440128
 
KOXC - Oxford/Waterbury, Connecticut, USA
Distance from station: SW 16mi, 25km
Updated: Sun, 06-13-2021 5:51am EDT
Clear
Clear
 Wind from calm
Wind: Calm
Temperature: 54°F , 12°C
Dew Point: 54°F , 12°C
Humidity: 100%
Barometer: 29.93 inHg , 1013.5 hPa
Clouds: Clear
Visibility: 8 miles , 13 km
2021/06/13 09:51 KOXC 130951Z 00000KT 8SM CLR 12/12 A2993 RMK AO2 SLP146 T01170117
KHVN - New Haven/Tweed, Connecticut, USA
Distance from station: S 23mi, 37km
Updated: Sun, 06-13-2021 5:53am EDT
Clear
Clear
 Wind from calm
Wind: Calm
Temperature: 55°F , 13°C
Dew Point: 54°F , 12°C
Humidity: 94%
Barometer: 29.92 inHg , 1013.2 hPa
Clouds: Clear
Visibility: 9 miles , 14 km
2021/06/13 09:53 KHVN 130953Z 00000KT 9SM CLR 13/12 A2992 RMK AO2 SLP132 T01280117 $
 
KSNC - Chester, Connecticut, USA
Distance from station: SE 25mi, 40km
Updated: Sun, 06-13-2021 6:35am EDT
Clear
Clear
 Wind from calm
Wind: Calm
Temperature: 57°F , 14°C
Dew Point: 55°F , 13°C
Humidity: 94%
Barometer: 29.93 inHg , 1013.5 hPa
Clouds: Clear
Visibility: 10 miles , 16 km
2021/06/13 10:35 KSNC 131035Z AUTO 00000KT 10SM CLR 14/13 A2993 RMK AO2
KBDL - Windsor Locks, Connecticut, USA
Distance from station: NNE 25mi, 41km
Updated: Sun, 06-13-2021 5:51am EDT
Mostly cloudy
Mostly cloudy
 Wind from SSE
Wind: SSE 5 mph , 7 km/h
Temperature: 57°F , 14°C
Dew Point: 55°F , 13°C
Humidity: 94%
Barometer: 29.90 inHg , 1012.5 hPa
Clouds: Mostly cloudy
Visibility: 10 miles , 16 km
Cloud details: Few Clouds 7500 ft
Mostly cloudy 25000 ft
2021/06/13 09:51 KBDL 130951Z 16004KT 10SM FEW075 BKN250 14/13 A2990 RMK AO2 SLP126 T01390128
 
KBDR - Bridgeport, Connecticut, USA
Distance from station: SSW 33mi, 52km
Updated: Sun, 06-13-2021 5:52am EDT
Clear
Clear
 Wind from calm
Wind: Calm
Temperature: 57°F , 14°C
Dew Point: 54°F , 12°C
Humidity: 88%
Barometer: 29.92 inHg , 1013.2 hPa
Clouds: Clear
Visibility: 10 miles , 16 km
2021/06/13 09:52 KBDR 130952Z AUTO 00000KT 10SM CLR 14/12 A2992 RMK AO2 SLP133 T01440117
KDXR - Danbury, Connecticut, USA
Distance from station: WSW 35mi, 56km
Updated: Sun, 06-13-2021 5:53am EDT
Clear
Clear
 Wind from calm
Wind: Calm
Temperature: 52°F , 11°C
Dew Point: 48°F , 9°C
Humidity: 88%
Barometer: 29.94 inHg , 1013.9 hPa
Clouds: Clear
Visibility: 9 miles , 14 km
2021/06/13 09:53 KDXR 130953Z AUTO 00000KT 9SM CLR 11/09 A2994 RMK AO2 SLP135 T01110094
 
KIJD - Willimantic, Connecticut, USA
Distance from station: ENE 38mi, 61km
Updated: Sun, 06-13-2021 5:52am EDT
Fog, Overcast
Fog, Overcast
 Wind from calm
Wind: Calm
Temperature: 54°F , 12°C
Dew Point: 52°F , 11°C
Humidity: 94%
Barometer: 29.91 inHg , 1012.9 hPa
Summary: Fog
Clouds: Overcast
Visibility: less than 1/4 mile , 0.4 km
Cloud details: Overcast 200 ft
2021/06/13 09:52 KIJD 130952Z AUTO 00000KT M1/4SM FG VV002 12/11 A2991 RMK AO2 SLP128 T01170111
KBAF - Westfield, Massachusetts, USA
Distance from station: NNE 40mi, 65km
Updated: Sun, 06-13-2021 6:01am EDT
Mist, Mostly cloudy
Mist, Mostly cloudy
 Wind from calm
Wind: Calm
Temperature: 55°F , 13°C
Dew Point: 55°F , 13°C
Humidity: 100%
Barometer: 29.90 inHg , 1012.5 hPa
Summary: Mist
Clouds: Mostly cloudy
Visibility: 3 miles , 5 km
Cloud details: Few Clouds 200 ft
Mostly cloudy 8000 ft
2021/06/13 10:01 KBAF 131001Z AUTO 00000KT 3SM BR FEW002 BKN080 13/13 A2990 RMK AO2 T01330133
 
KCEF - Chicopee/Westove, Massachusetts, USA
Distance from station: NNE 46mi, 73km
Updated: Sun, 06-13-2021 6:11am EDT
Mostly cloudy
Mostly cloudy
 Wind from calm
Wind: Calm
Temperature: 55°F , 13°C
Dew Point: 55°F , 13°C
Humidity: 100%
Barometer: 29.90 inHg , 1012.5 hPa
Clouds: Mostly cloudy
Visibility: 10 miles , 16 km
Cloud details: Partly cloudy 500 ft
Mostly cloudy 8000 ft
2021/06/13 10:11 KCEF 131011Z AUTO 00000KT 10SM SCT005 BKN080 13/13 A2990 RMK AO2 SLP130
KGON - Groton/New Londo, Connecticut, USA
Distance from station: ESE 47mi, 76km
Updated: Sun, 06-13-2021 5:56am EDT
Clear
Clear
 Wind from calm
Wind: Calm
Temperature: 55°F , 13°C
Dew Point: 54°F , 12°C
Humidity: 94%
Barometer: 29.91 inHg , 1012.9 hPa
Clouds: Clear
Visibility: 10 miles , 16 km
2021/06/13 09:56 KGON 130956Z AUTO 00000KT 10SM CLR 13/12 A2991 RMK AO2 SLP128 T01330122